createdAt,value
2022-11-19T00:01:22.403Z,4.80
2022-11-19T00:03:52.708Z,4.80
2022-11-19T00:06:23.111Z,4.80
2022-11-19T00:08:50.174Z,4.70
2022-11-19T00:11:42.082Z,4.70
2022-11-19T00:14:14.340Z,4.70
2022-11-19T00:16:42.004Z,4.70
2022-11-19T00:19:10.728Z,4.70
2022-11-19T00:21:37.419Z,4.70
2022-11-19T00:24:04.371Z,4.60
2022-11-19T00:26:31.047Z,4.60
2022-11-19T00:28:57.760Z,4.60
2022-11-19T00:31:24.583Z,4.60
2022-11-19T00:33:51.400Z,4.60
2022-11-19T00:36:18.256Z,4.60
2022-11-19T00:38:45.116Z,4.60
2022-11-19T00:41:12.480Z,4.50
2022-11-19T00:43:48.839Z,4.50
2022-11-19T00:46:27.847Z,4.50
2022-11-19T00:48:56.270Z,4.50
2022-11-19T00:51:24.807Z,4.50
2022-11-19T00:53:52.175Z,4.50
2022-11-19T00:56:21.238Z,4.40
2022-11-19T00:58:48.258Z,4.30
2022-11-19T01:01:16.725Z,4.20
2022-11-19T01:03:47.456Z,4.20
2022-11-19T01:06:19.403Z,4.10
2022-11-19T01:08:47.872Z,4.20
2022-11-19T01:11:22.456Z,4.30
2022-11-19T01:13:49.495Z,4.30
2022-11-19T01:16:25.549Z,4.30
2022-11-19T01:18:52.598Z,4.30
2022-11-19T01:21:21.580Z,4.20
2022-11-19T01:23:49.133Z,4.20
2022-11-19T01:26:16.360Z,4.20
2022-11-19T01:28:43.849Z,4.20
2022-11-19T01:31:18.753Z,4.20
2022-11-19T01:33:46.084Z,4.20
2022-11-19T01:36:16.316Z,4.10
2022-11-19T01:38:44.031Z,4.10
2022-11-19T01:41:10.836Z,4.00
2022-11-19T01:43:53.065Z,4.00
2022-11-19T01:46:22.510Z,4.00
2022-11-19T01:48:53.824Z,4.00
2022-11-19T01:51:28.380Z,4.00
2022-11-19T01:54:00.413Z,4.10
2022-11-19T01:56:29.206Z,4.10
2022-11-19T01:59:00.276Z,4.00
2022-11-19T02:01:29.091Z,4.00
2022-11-19T02:03:56.043Z,3.90
2022-11-19T02:06:22.962Z,3.90
2022-11-19T02:08:53.459Z,3.90
2022-11-19T02:11:29.238Z,3.90
2022-11-19T02:13:55.915Z,3.80
2022-11-19T02:16:44.339Z,3.70
2022-11-19T02:19:46.430Z,3.70
2022-11-19T02:22:34.402Z,3.70
2022-11-19T02:25:19.590Z,3.60
2022-11-19T02:27:49.378Z,3.60
2022-11-19T02:30:18.349Z,3.70
2022-11-19T02:33:09.707Z,3.60
2022-11-19T02:35:48.419Z,3.60
2022-11-19T02:38:32.307Z,3.60
2022-11-19T02:41:30.632Z,3.50
2022-11-19T02:44:22.975Z,3.50
2022-11-19T02:46:53.344Z,3.50
2022-11-19T02:49:25.877Z,3.50
2022-11-19T02:51:53.173Z,3.40
2022-11-19T02:54:19.904Z,3.40
2022-11-19T02:56:48.226Z,3.50
2022-11-19T02:59:36.484Z,3.30
2022-11-19T03:02:25.452Z,3.40
2022-11-19T03:04:53.147Z,3.50
2022-11-19T03:07:21.373Z,3.40
2022-11-19T03:09:57.447Z,3.40
2022-11-19T03:12:45.318Z,3.40
2022-11-19T03:16:01.028Z,3.40
2022-11-19T03:18:39.975Z,3.40
2022-11-19T03:21:30.316Z,3.40
2022-11-19T03:24:34.183Z,3.40
2022-11-19T03:27:04.916Z,3.30
2022-11-19T03:29:35.136Z,3.30
2022-11-19T03:32:07.447Z,3.30
2022-11-19T03:34:37.371Z,3.30
2022-11-19T03:37:06.685Z,3.30
2022-11-19T03:39:37.013Z,3.20
2022-11-19T03:42:09.426Z,3.20
2022-11-19T03:44:45.078Z,3.10
2022-11-19T03:47:20.537Z,3.20
2022-11-19T03:49:52.807Z,3.20
2022-11-19T03:52:21.387Z,3.10
2022-11-19T03:54:48.248Z,3.10
2022-11-19T03:57:18.874Z,3.10
2022-11-19T03:59:46.516Z,3.10
2022-11-19T04:02:14.979Z,3.10
2022-11-19T04:04:42.043Z,3.10
2022-11-19T04:07:16.014Z,3.10
2022-11-19T04:09:43.421Z,3.10
2022-11-19T04:12:19.779Z,3.10
2022-11-19T04:14:47.371Z,3.10
2022-11-19T04:17:14.875Z,3.10
2022-11-19T04:19:41.676Z,3.00
2022-11-19T04:22:08.740Z,3.00
2022-11-19T04:24:35.455Z,3.00
2022-11-19T04:27:02.456Z,3.00
2022-11-19T04:29:29.162Z,3.00
2022-11-19T04:31:55.906Z,3.00
2022-11-19T04:34:22.638Z,3.00
2022-11-19T04:36:49.315Z,2.90
2022-11-19T04:39:18.678Z,2.90
2022-11-19T04:41:45.732Z,2.90
2022-11-19T04:44:12.617Z,2.90
2022-11-19T04:46:40.864Z,3.00
2022-11-19T04:49:07.597Z,2.90
2022-11-19T04:51:34.372Z,3.00
2022-11-19T04:54:01.127Z,2.90
2022-11-19T04:56:27.900Z,2.90
2022-11-19T04:58:54.672Z,2.90
2022-11-19T05:01:21.907Z,3.00
2022-11-19T05:03:51.869Z,2.90
2022-11-19T05:06:18.944Z,3.00
2022-11-19T05:08:45.782Z,3.00
2022-11-19T05:11:12.600Z,2.90
2022-11-19T05:13:39.325Z,2.90
2022-11-19T05:16:06.392Z,2.90
2022-11-19T05:18:33.199Z,3.00
2022-11-19T05:21:00.247Z,2.90
2022-11-19T05:23:27.062Z,2.80
2022-11-19T05:25:53.786Z,2.70
2022-11-19T05:28:28.647Z,2.70
2022-11-19T05:31:04.599Z,2.70
2022-11-19T05:33:34.246Z,2.70
2022-11-19T05:36:01.654Z,2.70
2022-11-19T05:38:28.389Z,2.70
2022-11-19T05:40:55.119Z,2.70
2022-11-19T05:43:21.819Z,2.80
2022-11-19T05:45:48.501Z,2.70
2022-11-19T05:48:15.203Z,2.70
2022-11-19T05:50:42.759Z,2.70
2022-11-19T05:53:09.934Z,2.70
2022-11-19T05:55:36.691Z,2.70
2022-11-19T05:58:03.518Z,2.70
2022-11-19T06:00:30.243Z,2.60
2022-11-19T06:02:57.087Z,2.60
2022-11-19T06:05:23.861Z,2.60
2022-11-19T06:07:50.549Z,2.60
2022-11-19T06:10:17.354Z,2.60
2022-11-19T06:12:45.919Z,2.50
2022-11-19T06:15:13.476Z,2.60
2022-11-19T06:17:40.206Z,2.50
2022-11-19T06:20:08.821Z,2.40
2022-11-19T06:22:36.330Z,2.50
2022-11-19T06:25:04.935Z,2.50
2022-11-19T06:27:31.601Z,2.50
2022-11-19T06:29:58.361Z,2.40
2022-11-19T06:32:25.183Z,2.40
2022-11-19T06:34:51.880Z,2.40
2022-11-19T06:37:18.640Z,2.40
2022-11-19T06:39:45.362Z,2.40
2022-11-19T06:42:30.934Z,2.50
2022-11-19T06:44:57.614Z,2.50
2022-11-19T06:47:24.309Z,2.50
2022-11-19T06:49:51.071Z,2.50
2022-11-19T06:52:17.859Z,2.50
2022-11-19T06:54:44.583Z,2.50
2022-11-19T06:57:11.257Z,2.50
2022-11-19T06:59:39.072Z,2.50
2022-11-19T07:02:07.060Z,2.50
2022-11-19T07:04:34.059Z,2.50
2022-11-19T07:07:00.848Z,2.50
2022-11-19T07:09:27.639Z,2.60
2022-11-19T07:11:54.332Z,2.50
2022-11-19T07:14:21.108Z,2.50
2022-11-19T07:16:47.785Z,2.50
2022-11-19T07:19:14.516Z,2.50
2022-11-19T07:21:41.275Z,2.50
2022-11-19T07:24:09.975Z,2.50
2022-11-19T07:26:38.089Z,2.50
2022-11-19T07:29:07.022Z,2.40
2022-11-19T07:31:34.525Z,2.30
2022-11-19T07:34:01.840Z,2.30
2022-11-19T07:36:28.734Z,2.30
2022-11-19T07:38:55.451Z,2.30
2022-11-19T07:41:40.700Z,2.30
2022-11-19T07:44:07.646Z,2.20
2022-11-19T07:46:34.573Z,2.30
2022-11-19T07:49:01.305Z,2.20
2022-11-19T07:51:28.365Z,2.20
2022-11-19T07:53:56.306Z,2.20
2022-11-19T07:56:23.794Z,2.30
2022-11-19T07:58:53.967Z,2.30
2022-11-19T08:01:24.398Z,2.30
2022-11-19T08:03:56.349Z,2.30
2022-11-19T08:06:25.189Z,2.30
2022-11-19T08:08:51.975Z,2.30
2022-11-19T08:11:19.316Z,2.30
2022-11-19T08:13:46.161Z,2.30
2022-11-19T08:16:35.607Z,2.30
2022-11-19T08:19:08.776Z,2.30
2022-11-19T08:21:36.477Z,2.30
2022-11-19T08:24:03.727Z,2.30
2022-11-19T08:26:30.600Z,2.30
2022-11-19T08:28:57.311Z,2.30
2022-11-19T08:31:24.160Z,2.10
2022-11-19T08:33:50.849Z,2.10
2022-11-19T08:36:17.553Z,2.10
2022-11-19T08:38:44.305Z,2.10
2022-11-19T08:41:40.373Z,2.10
2022-11-19T08:44:07.114Z,2.10
2022-11-19T08:46:33.773Z,2.20
2022-11-19T08:49:00.515Z,2.20
2022-11-19T08:51:27.331Z,2.20
2022-11-19T08:53:54.135Z,2.30
2022-11-19T08:56:21.495Z,2.30
2022-11-19T08:58:48.326Z,2.30
2022-11-19T09:01:17.010Z,2.10
2022-11-19T09:03:44.721Z,2.10
2022-11-19T09:06:11.988Z,2.10
2022-11-19T09:08:39.428Z,2.10
2022-11-19T09:11:11.682Z,2.10
2022-11-19T09:13:38.837Z,2.10
2022-11-19T09:16:06.097Z,2.20
2022-11-19T09:18:33.677Z,2.10
2022-11-19T09:21:00.401Z,2.10
2022-11-19T09:23:28.300Z,2.10
2022-11-19T09:26:00.406Z,2.10
2022-11-19T09:28:28.408Z,2.10
2022-11-19T09:30:59.995Z,2.20
2022-11-19T09:33:27.390Z,2.20
2022-11-19T09:35:54.157Z,2.20
2022-11-19T09:38:21.077Z,2.20
2022-11-19T09:40:51.567Z,2.30
2022-11-19T09:43:53.488Z,2.30
2022-11-19T09:46:43.431Z,2.30
2022-11-19T09:49:30.809Z,2.30
2022-11-19T09:52:10.586Z,2.30
2022-11-19T09:54:41.225Z,2.30
2022-11-19T09:57:15.196Z,2.40
2022-11-19T09:59:42.151Z,2.40
2022-11-19T10:02:23.097Z,2.30
2022-11-19T10:04:51.251Z,2.30
2022-11-19T10:07:27.214Z,2.40
2022-11-19T10:10:12.249Z,2.40
2022-11-19T10:13:14.672Z,2.40
2022-11-19T10:16:19.090Z,2.40
2022-11-19T10:18:51.888Z,2.40
2022-11-19T10:21:37.178Z,2.40
2022-11-19T10:24:15.668Z,2.50
2022-11-19T10:26:42.450Z,2.50
2022-11-19T10:29:19.732Z,2.50
2022-11-19T10:31:49.816Z,2.40
2022-11-19T10:34:30.337Z,2.40
2022-11-19T10:37:02.400Z,2.40
2022-11-19T10:39:39.925Z,2.40
2022-11-19T10:42:22.313Z,2.40
2022-11-19T10:45:19.165Z,2.50
2022-11-19T10:48:07.620Z,2.60
2022-11-19T10:50:36.403Z,2.70
2022-11-19T10:53:47.209Z,2.80
2022-11-19T10:56:22.894Z,2.80
2022-11-19T10:58:58.572Z,2.90
2022-11-19T11:01:41.568Z,3.00
2022-11-19T11:04:26.163Z,3.10
2022-11-19T11:07:03.127Z,3.20
2022-11-19T11:09:41.270Z,3.40
2022-11-19T11:12:36.942Z,3.60
2022-11-19T11:15:43.774Z,3.80
2022-11-19T11:18:11.618Z,3.80
2022-11-19T11:20:45.220Z,3.80
2022-11-19T11:23:17.221Z,3.80
2022-11-19T11:26:02.650Z,3.90
2022-11-19T11:28:29.785Z,3.90
2022-11-19T11:31:04.535Z,3.90
2022-11-19T11:33:36.040Z,3.80
2022-11-19T11:36:07.430Z,3.80
2022-11-19T11:38:50.143Z,3.70
2022-11-19T11:44:15.935Z,3.90
2022-11-19T11:46:53.968Z,3.90
2022-11-19T11:49:35.256Z,3.90
2022-11-19T11:52:17.516Z,4.00
2022-11-19T11:55:04.665Z,3.90
2022-11-19T11:57:36.657Z,3.90
2022-11-19T12:00:59.175Z,4.00
2022-11-19T12:03:26.393Z,4.00
2022-11-19T12:06:09.109Z,4.00
2022-11-19T12:08:41.857Z,4.10
2022-11-19T12:11:27.076Z,4.10
2022-11-19T12:14:10.723Z,4.10
2022-11-19T12:16:52.808Z,4.10
2022-11-19T12:19:50.405Z,4.10
2022-11-19T12:22:46.465Z,4.10
2022-11-19T12:25:16.531Z,4.00
2022-11-19T12:28:07.902Z,4.00
2022-11-19T12:30:51.138Z,3.90
2022-11-19T12:33:23.805Z,3.90
2022-11-19T12:36:02.647Z,3.90
2022-11-19T12:38:47.376Z,3.90
2022-11-19T12:41:26.383Z,3.90
2022-11-19T12:43:59.871Z,3.80
2022-11-19T12:46:49.895Z,3.90
2022-11-19T12:49:22.511Z,3.90
2022-11-19T12:52:05.955Z,3.80
2022-11-19T12:54:41.484Z,3.90
2022-11-19T12:57:23.532Z,3.90
2022-11-19T13:00:14.144Z,3.90
2022-11-19T13:02:48.915Z,3.90
2022-11-19T13:05:39.839Z,3.90
2022-11-19T13:08:25.171Z,3.80
2022-11-19T13:11:16.551Z,3.80
2022-11-19T13:13:55.788Z,3.80
2022-11-19T13:16:25.193Z,3.80
2022-11-19T13:18:55.543Z,3.80
2022-11-19T13:21:31.280Z,3.70
2022-11-19T13:24:06.724Z,3.80
2022-11-19T13:26:35.919Z,3.80
2022-11-19T13:29:44.138Z,3.70
2022-11-19T13:32:10.871Z,3.70
2022-11-19T13:34:56.713Z,3.60
2022-11-19T13:37:38.501Z,3.70
2022-11-19T13:40:31.278Z,3.80
2022-11-19T13:43:31.678Z,3.80
2022-11-19T13:46:11.024Z,3.90
2022-11-19T13:48:42.982Z,3.90
2022-11-19T13:51:34.639Z,3.90
2022-11-19T13:54:03.876Z,4.00
2022-11-19T13:56:47.153Z,4.30
2022-11-19T13:59:28.667Z,4.70
2022-11-19T14:02:27.531Z,4.90
2022-11-19T14:05:09.296Z,5.00
2022-11-19T14:07:45.048Z,5.00
2022-11-19T14:10:27.803Z,4.90
2022-11-19T14:12:57.358Z,4.80
2022-11-19T14:16:10.946Z,4.60
2022-11-19T14:19:05.367Z,4.50
2022-11-19T14:21:53.935Z,4.30
2022-11-19T14:24:45.097Z,4.20
2022-11-19T14:27:20.649Z,4.10
2022-11-19T14:29:47.293Z,4.00
2022-11-19T14:32:14.034Z,3.90
2022-11-19T14:34:42.770Z,3.80
2022-11-19T14:37:50.786Z,3.70
2022-11-19T14:40:43.552Z,3.60
2022-11-19T14:43:35.124Z,3.60
2022-11-19T14:46:01.896Z,3.60
2022-11-19T14:48:38.645Z,3.60
2022-11-19T14:51:11.967Z,3.50
2022-11-19T14:54:07.172Z,3.50
2022-11-19T14:56:36.905Z,3.30
2022-11-19T14:59:16.588Z,3.20
2022-11-19T15:02:00.503Z,3.10
2022-11-19T15:05:02.812Z,3.00
2022-11-19T15:07:47.193Z,2.90
2022-11-19T15:10:17.659Z,2.90
2022-11-19T15:12:44.347Z,2.90
2022-11-19T15:15:20.434Z,2.90
2022-11-19T15:18:00.615Z,2.90
2022-11-19T15:20:47.244Z,2.80
2022-11-19T15:23:31.893Z,2.80
2022-11-19T15:26:04.544Z,2.70
2022-11-19T15:29:08.667Z,2.80
2022-11-19T15:31:38.527Z,2.80
2022-11-19T15:35:04.012Z,2.80
2022-11-19T15:38:04.295Z,2.70
2022-11-19T15:40:36.282Z,2.70
2022-11-19T15:43:30.739Z,2.70
2022-11-19T15:46:01.123Z,2.60
2022-11-19T15:49:01.944Z,2.60
2022-11-19T15:51:32.167Z,2.60
2022-11-19T15:54:07.451Z,2.60
2022-11-19T15:56:57.163Z,2.50
2022-11-19T15:59:23.984Z,2.50
2022-11-19T16:01:59.794Z,2.50
2022-11-19T16:04:39.573Z,2.50
2022-11-19T16:07:08.910Z,2.50
2022-11-19T16:09:37.201Z,2.40
2022-11-19T16:12:22.793Z,2.40
2022-11-19T16:15:10.694Z,2.40
2022-11-19T16:17:49.679Z,2.40
2022-11-19T16:20:20.571Z,2.40
2022-11-19T16:23:06.913Z,2.30
2022-11-19T16:25:42.124Z,2.30
2022-11-19T16:28:13.506Z,2.30
2022-11-19T16:30:51.081Z,2.20
2022-11-19T16:33:23.374Z,2.20
2022-11-19T16:35:53.163Z,2.20
2022-11-19T16:38:27.363Z,2.10
2022-11-19T16:41:14.315Z,2.10
2022-11-19T16:43:48.857Z,2.10
2022-11-19T16:46:20.199Z,2.00
2022-11-19T16:48:49.930Z,2.10
2022-11-19T16:51:25.987Z,2.00
2022-11-19T16:53:52.815Z,1.90
2022-11-19T16:56:19.976Z,1.90
2022-11-19T16:58:47.078Z,1.80
2022-11-19T17:01:18.744Z,1.80
2022-11-19T17:03:45.591Z,1.70
2022-11-19T17:06:24.080Z,1.70
2022-11-19T17:09:01.233Z,1.60
2022-11-19T17:12:00.283Z,1.50
2022-11-19T17:14:52.235Z,1.40
2022-11-19T17:17:39.461Z,1.30
2022-11-19T17:20:30.604Z,1.20
2022-11-19T17:22:58.472Z,1.20
2022-11-19T17:25:25.897Z,1.20
2022-11-19T17:27:58.373Z,1.10
2022-11-19T17:30:26.708Z,1.00
2022-11-19T17:32:57.543Z,1.00
2022-11-19T17:35:34.241Z,1.00
2022-11-19T17:38:18.096Z,0.90
2022-11-19T17:40:49.466Z,0.90
2022-11-19T17:43:40.682Z,0.90
2022-11-19T17:46:07.419Z,0.90
2022-11-19T17:48:35.101Z,0.80
2022-11-19T17:51:01.927Z,0.80
2022-11-19T17:53:28.611Z,0.80
2022-11-19T17:55:57.523Z,0.80
2022-11-19T17:58:24.312Z,0.70
2022-11-19T18:00:51.169Z,0.70
2022-11-19T18:03:17.923Z,0.70
2022-11-19T18:05:48.540Z,0.70
2022-11-19T18:08:18.833Z,0.60
2022-11-19T18:10:49.757Z,0.60
2022-11-19T18:13:21.090Z,0.60
2022-11-19T18:15:47.764Z,0.60
2022-11-19T18:18:14.487Z,0.60
2022-11-19T18:20:41.659Z,0.50
2022-11-19T18:23:12.627Z,0.50
2022-11-19T18:25:39.897Z,0.50
2022-11-19T18:28:06.871Z,0.50
2022-11-19T18:30:33.893Z,0.40
2022-11-19T18:33:00.664Z,0.40
2022-11-19T18:35:27.973Z,0.40
2022-11-19T18:37:55.061Z,0.40
2022-11-19T18:40:21.861Z,0.30
2022-11-19T18:43:07.454Z,0.30
2022-11-19T18:45:34.147Z,0.40
2022-11-19T18:48:00.922Z,0.30
2022-11-19T18:50:30.070Z,0.30
2022-11-19T18:52:57.174Z,0.30
2022-11-19T18:55:23.921Z,0.30
2022-11-19T18:57:50.591Z,0.30
2022-11-19T19:00:17.768Z,0.20
2022-11-19T19:02:44.590Z,0.20
2022-11-19T19:05:11.499Z,0.30
2022-11-19T19:07:38.269Z,0.20
2022-11-19T19:10:05.329Z,0.20
2022-11-19T19:12:32.034Z,0.20
2022-11-19T19:14:58.933Z,0.30
2022-11-19T19:17:26.312Z,0.30
2022-11-19T19:19:53.296Z,0.20
2022-11-19T19:22:20.643Z,0.20
2022-11-19T19:24:48.050Z,0.20
2022-11-19T19:27:15.538Z,0.20
2022-11-19T19:29:42.388Z,0.20
2022-11-19T19:32:09.500Z,0.10
2022-11-19T19:34:36.629Z,0.10
2022-11-19T19:37:04.423Z,0.00
2022-11-19T19:39:31.126Z,0.00
2022-11-19T19:41:57.784Z,0.00
2022-11-19T19:44:24.531Z,0.00
2022-11-19T19:46:51.317Z,0.00
2022-11-19T19:49:18.190Z,0.00
2022-11-19T19:51:45.019Z,0.00
2022-11-19T19:54:11.704Z,0.00
2022-11-19T19:56:39.811Z,0.00
2022-11-19T19:59:06.864Z,0.00
2022-11-19T20:01:35.646Z,-0.10
2022-11-19T20:04:08.487Z,0.00
2022-11-19T20:06:40.822Z,-0.10
2022-11-19T20:09:09.536Z,-0.10
2022-11-19T20:11:37.268Z,-0.10
2022-11-19T20:14:04.090Z,-0.10
2022-11-19T20:16:32.446Z,-0.10
2022-11-19T20:19:00.294Z,-0.10
2022-11-19T20:21:34.301Z,-0.20
2022-11-19T20:24:05.923Z,-0.20
2022-11-19T20:26:35.593Z,-0.20
2022-11-19T20:29:05.496Z,-0.20
2022-11-19T20:31:34.310Z,-0.20
2022-11-19T20:34:03.650Z,-0.20
2022-11-19T20:36:32.825Z,-0.20
2022-11-19T20:38:59.843Z,-0.30
2022-11-19T20:41:46.480Z,-0.40
2022-11-19T20:44:20.900Z,-0.30
2022-11-19T20:46:50.608Z,-0.30
2022-11-19T20:49:18.682Z,-0.30
2022-11-19T20:51:45.850Z,-0.40
2022-11-19T20:54:13.017Z,-0.40
2022-11-19T20:56:40.381Z,-0.40
2022-11-19T20:59:07.627Z,-0.40
2022-11-19T21:01:35.302Z,-0.40
2022-11-19T21:04:02.406Z,-0.40
2022-11-19T21:06:29.363Z,-0.40
2022-11-19T21:08:56.737Z,-0.40
2022-11-19T21:11:24.191Z,-0.40
2022-11-19T21:13:51.145Z,-0.50
2022-11-19T21:16:25.765Z,-0.50
2022-11-19T21:18:52.766Z,-0.50
2022-11-19T21:21:20.908Z,-0.50
2022-11-19T21:23:48.138Z,-0.50
2022-11-19T21:26:20.655Z,-0.50
2022-11-19T21:28:51.668Z,-0.60
2022-11-19T21:31:20.733Z,-0.60
2022-11-19T21:33:47.519Z,-0.70
2022-11-19T21:36:14.368Z,-0.60
2022-11-19T21:38:41.245Z,-0.70
2022-11-19T21:41:08.290Z,-0.70
2022-11-19T21:43:35.445Z,-0.70
2022-11-19T21:46:06.415Z,-0.70
2022-11-19T21:48:33.244Z,-0.70
2022-11-19T21:51:00.009Z,-0.80
2022-11-19T21:53:26.764Z,-0.80
2022-11-19T21:55:56.818Z,-0.80
2022-11-19T21:58:23.555Z,-0.80
2022-11-19T22:00:50.353Z,-0.80
2022-11-19T22:03:17.083Z,-0.80
2022-11-19T22:05:43.862Z,-0.80
2022-11-19T22:08:10.734Z,-0.80
2022-11-19T22:10:40.264Z,-0.80
2022-11-19T22:13:11.009Z,-0.90
2022-11-19T22:15:37.743Z,-0.90
2022-11-19T22:18:04.693Z,-0.90
2022-11-19T22:20:31.389Z,-0.90
2022-11-19T22:22:58.230Z,-0.90
2022-11-19T22:25:25.396Z,-0.90
2022-11-19T22:27:52.232Z,-1.00
2022-11-19T22:30:19.060Z,-1.00
2022-11-19T22:32:45.837Z,-1.00
2022-11-19T22:35:12.547Z,-1.10
2022-11-19T22:37:39.256Z,-1.10
2022-11-19T22:40:06.534Z,-1.20
2022-11-19T22:42:33.227Z,-1.20
2022-11-19T22:44:59.982Z,-1.20
2022-11-19T22:47:26.711Z,-1.20
2022-11-19T22:49:53.459Z,-1.20
2022-11-19T22:52:20.159Z,-1.20
2022-11-19T22:54:47.304Z,-1.20
2022-11-19T22:57:14.024Z,-1.20
2022-11-19T22:59:40.811Z,-1.20
2022-11-19T23:02:07.509Z,-1.20
2022-11-19T23:04:34.196Z,-1.30
2022-11-19T23:07:01.051Z,-1.30
2022-11-19T23:09:27.880Z,-1.30
2022-11-19T23:12:13.032Z,-1.30
2022-11-19T23:14:39.821Z,-1.20
2022-11-19T23:17:06.813Z,-1.20
2022-11-19T23:19:33.496Z,-1.20
2022-11-19T23:22:00.179Z,-1.20
2022-11-19T23:24:26.972Z,-1.20
2022-11-19T23:26:53.882Z,-1.20
2022-11-19T23:29:21.041Z,-1.10
2022-11-19T23:31:47.981Z,-1.10
2022-11-19T23:34:14.774Z,-1.20
2022-11-19T23:36:42.484Z,-1.20
2022-11-19T23:39:15.175Z,-1.10
2022-11-19T23:41:42.551Z,-1.10
2022-11-19T23:44:09.391Z,-1.20
2022-11-19T23:46:36.567Z,-1.10
2022-11-19T23:49:03.932Z,-1.20
2022-11-19T23:51:36.187Z,-1.10
2022-11-19T23:54:03.782Z,-1.10
2022-11-19T23:56:32.841Z,-1.20
2022-11-19T23:59:04.020Z,-1.20
